Time;durP1;ratioP1;P1;durP2;ratioP2;P2;SDS_P1;SDS_P2;PMS_P1;PMS_P2;Temp;Humidity;BMP_temperature;BMP_pressure;BME280_temperature;BME280_humidity;BME280_pressure;Samples;Min_cycle;Max_cycle;Signal;HPM_P1;HPM_P2
2022/05/07 00:00:45;;;;;;;4.70;1.30;;;;;;;14.15;100.00;99926.66;5010827;28;20056;-78
2022/05/07 00:03:13;;;;;;;9.52;1.27;;;;;;;14.01;100.00;99939.66;5009623;28;20133;-77
2022/05/07 00:05:42;;;;;;;5.88;1.17;;;;;;;13.91;100.00;99919.69;5009252;28;20057;-76
2022/05/07 00:08:10;;;;;;;11.55;1.83;;;;;;;14.04;100.00;99924.06;5009859;28;20089;-77
2022/05/07 00:10:41;;;;;;;2.92;1.05;;;;;;;14.16;100.00;99911.94;5002730;28;20096;-74
2022/05/07 00:13:11;;;;;;;5.43;1.27;;;;;;;14.21;100.00;99910.22;5012739;28;20054;-76
2022/05/07 00:15:40;;;;;;;3.55;1.08;;;;;;;14.24;100.00;99905.00;5029123;28;20056;-77
2022/05/07 00:18:10;;;;;;;8.18;1.35;;;;;;;14.28;100.00;99906.75;5029737;28;20056;-75
2022/05/07 00:20:39;;;;;;;5.07;1.00;;;;;;;14.35;100.00;99898.06;5029467;28;20046;-76
2022/05/07 00:23:07;;;;;;;6.10;1.38;;;;;;;14.56;100.00;99901.59;5029103;28;20054;-76
2022/05/07 00:25:35;;;;;;;6.50;1.50;;;;;;;14.64;100.00;99902.47;5029221;28;20055;-75
2022/05/07 00:28:04;;;;;;;8.60;1.73;;;;;;;14.78;100.00;99911.13;5028583;28;20049;-75
2022/05/07 00:30:34;;;;;;;3.20;1.00;;;;;;;14.80;100.00;99906.78;5029097;28;20455;-79
2022/05/07 00:33:02;;;;;;;4.55;1.05;;;;;;;14.75;100.00;99908.53;5029475;28;20133;-77
2022/05/07 00:35:31;;;;;;;4.65;1.05;;;;;;;14.70;100.00;99904.16;5028978;28;20052;-76
2022/05/07 00:37:59;;;;;;;5.68;1.35;;;;;;;14.67;100.00;99912.88;5028794;28;20081;-76
2022/05/07 00:40:27;;;;;;;3.90;0.95;;;;;;;14.61;100.00;99903.34;5029067;28;20064;-77
2022/05/07 00:42:55;;;;;;;2.42;0.68;;;;;;;14.58;96.75;99905.06;5028303;28;20060;-80
2022/05/07 00:45:24;;;;;;;7.63;1.08;;;;;;;14.54;100.00;99898.97;5032665;28;20041;-80
2022/05/07 00:47:54;;;;;;;2.50;0.60;;;;;;;14.53;100.00;99909.38;5026668;28;20049;-78
2022/05/07 00:53:24;;;;;;;3.10;0.73;;;;;;;14.46;100.00;99911.97;4948095;28;20099;-77
2022/05/07 00:55:53;;;;;;;2.95;0.60;;;;;;;14.43;100.00;99903.28;4947233;28;20118;-79
2022/05/07 00:58:22;;;;;;;1.63;0.55;;;;;;;14.42;100.00;99902.41;4975900;28;20042;-75
2022/05/07 01:00:52;;;;;;;1.05;0.30;;;;;;;14.40;100.00;99903.28;5008709;28;20060;-76
2022/05/07 01:03:22;;;;;;;3.92;0.63;;;;;;;14.36;100.00;99899.84;5008332;28;20046;-75
2022/05/07 01:05:51;;;;;;;1.27;0.68;;;;;;;14.33;100.00;99901.56;5008655;28;20052;-75
2022/05/07 01:08:21;;;;;;;3.30;0.85;;;;;;;14.30;100.00;99893.75;5008608;28;20068;-76
2022/05/07 01:10:50;;;;;;;2.92;0.38;;;;;;;14.27;100.00;99889.41;5015511;28;20157;-75
2022/05/07 01:13:19;;;;;;;2.55;0.60;;;;;;;14.18;100.00;99889.41;5012216;28;20057;-75
2022/05/07 01:15:47;;;;;;;1.42;0.50;;;;;;;14.04;99.21;99889.38;5028362;28;20115;-76
2022/05/07 01:18:17;;;;;;;1.27;0.55;;;;;;;13.95;100.00;99887.66;5027856;28;20042;-74
2022/05/07 01:20:47;;;;;;;2.33;0.35;;;;;;;13.90;100.00;99878.06;5028479;28;20081;-73
2022/05/07 01:23:17;;;;;;;1.10;0.45;;;;;;;13.87;100.00;99868.53;5028261;28;20056;-74
2022/05/07 01:25:46;;;;;;;1.95;0.57;;;;;;;13.84;100.00;99889.34;5029967;28;20197;-73
2022/05/07 01:28:14;;;;;;;3.22;0.55;;;;;;;13.77;100.00;99882.41;5032162;28;20077;-71
2022/05/07 01:30:43;;;;;;;4.15;1.00;;;;;;;13.68;100.00;99887.56;5032372;28;20049;-73
2022/05/07 01:33:11;;;;;;;1.35;0.73;;;;;;;13.64;100.00;99883.22;5032254;28;20049;-73
2022/05/07 01:35:39;;;;;;;2.67;0.73;;;;;;;13.55;100.00;99882.31;5031513;28;20049;-73
2022/05/07 01:38:07;;;;;;;6.22;0.52;;;;;;;13.50;100.00;99886.66;5030463;28;20045;-73
2022/05/07 01:40:37;;;;;;;1.88;0.77;;;;;;;13.48;100.00;99875.38;5034842;28;20049;-73
2022/05/07 01:43:06;;;;;;;4.38;0.98;;;;;;;13.38;100.00;99878.81;5033692;28;20041;-74
2022/05/07 01:45:34;;;;;;;2.15;0.50;;;;;;;13.35;100.00;99889.16;5032852;28;20050;-72
2022/05/07 01:48:10;;;;;;;4.72;1.13;;;;;;;13.35;100.00;99899.56;5032248;28;20128;-76
2022/05/07 01:50:39;;;;;;;2.28;0.52;;;;;;;13.35;100.00;99899.56;5032460;28;20511;-78
2022/05/07 01:53:09;;;;;;;4.53;1.00;;;;;;;13.33;100.00;99896.97;5031962;28;20045;-78
2022/05/07 01:55:39;;;;;;;1.80;0.50;;;;;;;13.32;100.00;99902.16;5032030;28;20053;-77
2022/05/07 01:58:07;;;;;;;4.15;0.80;;;;;;;13.30;100.00;99898.69;5032347;28;20491;-76
2022/05/07 02:00:42;;;;;;;5.57;1.00;;;;;;;13.30;100.00;99906.47;5032042;28;20592;-78
2022/05/07 02:03:11;;;;;;;6.68;1.02;;;;;;;13.27;100.00;99901.25;5031400;28;20144;-78
2022/05/07 02:05:39;;;;;;;2.92;0.90;;;;;;;13.26;100.00;99904.69;5031606;28;20049;-76
2022/05/07 02:08:08;;;;;;;7.03;0.75;;;;;;;13.11;100.00;99888.16;5031540;28;20084;-79
2022/05/07 02:10:38;;;;;;;4.53;0.80;;;;;;;13.16;100.00;99899.44;5022140;28;20141;-77
2022/05/07 02:13:06;;;;;;;3.38;0.73;;;;;;;13.15;100.00;99904.66;5013798;28;20046;-77
2022/05/07 02:15:35;;;;;;;4.10;0.80;;;;;;;13.12;100.00;99902.88;5032195;28;20492;-79
2022/05/07 02:18:03;;;;;;;3.58;0.80;;;;;;;13.07;100.00;99894.19;5031672;28;20128;-75
2022/05/07 02:20:31;;;;;;;5.68;0.80;;;;;;;13.02;100.00;99893.31;5031516;28;20061;-77
2022/05/07 02:23:00;;;;;;;3.13;0.77;;;;;;;12.93;100.00;99898.44;5031799;28;20045;-79
2022/05/07 02:25:28;;;;;;;4.85;0.85;;;;;;;12.89;100.00;99900.16;5031891;28;20045;-73
2022/05/07 02:27:58;;;;;;;3.70;0.80;;;;;;;12.88;100.00;99913.16;5031465;28;20045;-75
2022/05/07 02:30:26;;;;;;;3.70;1.02;;;;;;;12.87;100.00;99916.56;5032051;28;20136;-75
2022/05/07 02:32:54;;;;;;;5.10;1.02;;;;;;;12.83;100.00;99915.72;5031167;28;20057;-74
2022/05/07 02:35:23;;;;;;;4.32;0.88;;;;;;;12.81;100.00;99922.63;5031343;28;20058;-73
2022/05/07 02:37:51;;;;;;;6.53;1.00;;;;;;;12.78;100.00;99922.56;5033753;28;20110;-75
2022/05/07 02:40:19;;;;;;;5.82;1.17;;;;;;;12.75;100.00;99922.56;5032129;28;20064;-75
2022/05/07 02:42:46;;;;;;;4.28;0.60;;;;;;;12.70;100.00;99930.31;5030927;28;20050;-74
2022/05/07 02:45:17;;;;;;;4.28;0.90;;;;;;;12.68;100.00;99923.38;5031625;28;20553;-74
2022/05/07 02:47:46;;;;;;;7.22;0.90;;;;;;;12.64;100.00;99930.25;5030990;28;20049;-75
2022/05/07 02:50:14;;;;;;;2.00;0.70;;;;;;;12.60;100.00;99918.13;5031433;28;20043;-74
2022/05/07 02:52:42;;;;;;;2.95;1.05;;;;;;;12.56;100.00;99932.81;5030546;28;20053;-75
2022/05/07 02:55:12;;;;;;;3.63;0.65;;;;;;;12.54;100.00;99947.47;5030655;28;20049;-73
2022/05/07 02:57:40;;;;;;;4.05;0.98;;;;;;;12.51;100.00;99944.00;5030344;28;20056;-74
2022/05/07 03:00:09;;;;;;;3.10;0.70;;;;;;;12.45;100.00;99939.63;5030541;28;20049;-74
2022/05/07 03:02:39;;;;;;;3.75;0.60;;;;;;;12.41;100.00;99942.19;5030469;28;20060;-74
2022/05/07 03:05:08;;;;;;;1.48;0.52;;;;;;;12.34;100.00;99944.69;5015869;28;20068;-73
2022/05/07 03:07:36;;;;;;;0.35;0.22;;;;;;;12.30;100.00;99940.38;5011311;28;20053;-73
2022/05/07 03:10:05;;;;;;;1.58;0.63;;;;;;;12.25;100.00;99941.16;5010722;28;20042;-73
2022/05/07 03:12:33;;;;;;;3.20;0.50;;;;;;;12.23;100.00;99943.75;5012170;28;20463;-71
2022/05/07 03:15:02;;;;;;;0.82;0.38;;;;;;;12.19;100.00;99941.13;5026478;28;20513;-72
2022/05/07 03:17:34;;;;;;;1.58;0.65;;;;;;;12.17;100.00;99941.09;5030448;28;20049;-74
2022/05/07 03:20:09;;;;;;;0.40;0.40;;;;;;;12.14;100.00;99946.25;5030601;28;20081;-76
2022/05/07 03:22:38;;;;;;;4.18;0.73;;;;;;;12.11;100.00;99948.81;5029726;28;20137;-77
2022/05/07 03:25:07;;;;;;;3.38;0.63;;;;;;;12.03;100.00;99953.06;5029944;28;20049;-76
2022/05/07 03:27:36;;;;;;;2.72;0.47;;;;;;;11.97;100.00;99951.25;5030299;28;20414;-72
2022/05/07 03:30:04;;;;;;;2.55;0.98;;;;;;;11.92;100.00;99958.13;5030060;28;20146;-72
2022/05/07 03:32:33;;;;;;;2.08;0.30;;;;;;;11.84;100.00;99950.22;5030749;28;20052;-73
2022/05/07 03:35:03;;;;;;;0.45;0.22;;;;;;;11.79;100.00;99951.00;5032738;28;20515;-72
2022/05/07 03:37:31;;;;;;;3.20;0.52;;;;;;;11.74;100.00;99956.16;5030886;28;20507;-71
2022/05/07 03:40:00;;;;;;;3.65;0.77;;;;;;;11.70;100.00;99962.13;5030094;28;20128;-73
2022/05/07 03:42:33;;;;;;;2.03;0.40;;;;;;;11.65;100.00;99959.50;5030099;28;20410;-70
2022/05/07 03:45:02;;;;;;;1.27;0.20;;;;;;;11.62;100.00;99958.59;5029829;28;20507;-70
2022/05/07 03:47:30;;;;;;;1.33;0.30;;;;;;;11.57;100.00;99960.22;5029688;28;20046;-70
2022/05/07 03:49:58;;;;;;;0.95;0.25;;;;;;;11.55;100.00;99965.41;4989659;28;20050;-70
2022/05/07 03:55:14;;;;;;;6.60;0.43;;;;;;;11.54;100.00;99968.84;4990763;28;20053;-72
2022/05/07 03:57:42;;;;;;;1.73;0.43;;;;;;;11.52;100.00;99967.94;4990531;28;20050;-71
2022/05/07 04:00:12;;;;;;;1.02;0.43;;;;;;;11.52;100.00;99967.94;4990349;28;20050;-73
2022/05/07 04:02:40;;;;;;;3.45;0.35;;;;;;;11.49;100.00;99971.38;4989990;28;20054;-73
2022/05/07 04:05:09;;;;;;;0.82;0.20;;;;;;;11.44;100.00;99974.78;5005191;28;20046;-73
2022/05/07 04:07:39;;;;;;;1.55;0.55;;;;;;;11.37;100.00;99971.22;5009358;28;20096;-72
2022/05/07 04:10:08;;;;;;;3.72;0.52;;;;;;;11.35;100.00;99975.50;5009238;28;20129;-71
2022/05/07 04:12:48;;;;;;;0.57;0.28;;;;;;;11.31;100.00;99972.03;5011638;28;20500;-72
2022/05/07 04:15:17;;;;;;;2.90;0.40;;;;;;;11.28;100.00;99977.13;5010006;28;20069;-71
2022/05/07 04:17:45;;;;;;;1.35;0.38;;;;;;;11.27;100.00;99971.94;5009746;28;20508;-72
2022/05/07 04:20:14;;;;;;;0.20;0.20;;;;;;;11.27;100.00;99977.09;5009403;28;20046;-72
2022/05/07 04:22:44;;;;;;;1.65;0.50;;;;;;;11.25;100.00;99984.88;5009453;28;20054;-71
2022/05/07 04:25:13;;;;;;;0.70;0.38;;;;;;;11.23;100.00;99985.72;5009569;28;20499;-72
2022/05/07 04:27:41;;;;;;;0.10;0.10;;;;;;;11.22;100.00;99995.16;5009398;28;20133;-72
2022/05/07 04:30:10;;;;;;;1.85;0.60;;;;;;;11.23;100.00;100009.00;5012025;28;20081;-71
2022/05/07 04:32:39;;;;;;;2.05;0.60;;;;;;;11.23;100.00;100001.25;5009926;28;20042;-72
2022/05/07 04:35:11;;;;;;;3.40;0.75;;;;;;;11.20;100.00;100007.25;5009953;28;20050;-72
2022/05/07 04:37:39;;;;;;;1.90;0.67;;;;;;;11.22;100.00;100008.13;5009260;28;20056;-73
2022/05/07 04:40:11;;;;;;;4.10;0.65;;;;;;;11.21;100.00;100018.47;5009612;28;20046;-75
2022/05/07 04:42:39;;;;;;;1.10;0.20;;;;;;;11.21;100.00;100018.47;5008898;28;20111;-78
2022/05/07 04:45:09;;;;;;;1.67;1.08;;;;;;;11.19;100.00;100018.44;5009115;28;20056;-76
2022/05/07 04:47:37;;;;;;;0.85;0.30;;;;;;;11.18;100.00;100026.19;5008520;28;20053;-76
2022/05/07 04:50:06;;;;;;;0.50;0.20;;;;;;;11.17;100.00;100011.50;5009493;28;20042;-75
2022/05/07 04:52:35;;;;;;;1.10;0.25;;;;;;;11.16;100.00;100021.00;5008669;28;20038;-76
2022/05/07 04:55:04;;;;;;;2.40;0.15;;;;;;;11.16;100.00;100022.72;5008934;28;20056;-76
2022/05/07 04:57:34;;;;;;;0.73;0.20;;;;;;;11.19;100.00;100021.03;5009251;28;20046;-75
2022/05/07 05:00:03;;;;;;;2.17;0.50;;;;;;;11.21;100.00;100018.47;5008836;28;20050;-77
2022/05/07 05:02:31;;;;;;;0.95;0.40;;;;;;;11.23;100.00;100017.66;5008932;28;20050;-76
2022/05/07 05:04:59;;;;;;;0.38;0.30;;;;;;;11.24;100.00;100023.69;5008896;28;20053;-76
2022/05/07 05:07:28;;;;;;;0.63;0.20;;;;;;;11.25;100.00;100018.53;5009102;28;20054;-75
2022/05/07 05:09:56;;;;;;;1.08;0.52;;;;;;;11.26;100.00;100016.81;5004799;28;20050;-75
2022/05/07 05:12:41;;;;;;;2.85;0.35;;;;;;;11.28;100.00;100034.13;5009021;28;20164;-75
2022/05/07 05:15:15;;;;;;;3.90;0.30;;;;;;;11.29;100.00;100022.94;5006302;28;20065;-76
2022/05/07 05:17:44;;;;;;;1.85;0.28;;;;;;;11.31;100.00;100031.59;5009142;28;20051;-75
2022/05/07 05:20:13;;;;;;;3.28;0.60;;;;;;;11.32;100.00;100032.47;5009278;28;20068;-75
2022/05/07 05:22:48;;;;;;;1.75;0.32;;;;;;;11.30;100.00;100028.97;5008636;28;20689;-76
2022/05/07 05:25:19;;;;;;;3.08;0.40;;;;;;;11.30;100.00;100039.31;5009539;28;20045;-76
2022/05/07 05:27:49;;;;;;;1.77;0.55;;;;;;;11.26;100.00;100032.34;5012992;28;20566;-75
2022/05/07 05:30:18;;;;;;;0.93;0.50;;;;;;;11.25;100.00;100035.81;5010005;28;20046;-76
2022/05/07 05:32:46;;;;;;;4.15;0.40;;;;;;;11.23;100.00;100033.19;5009050;28;20053;-75
2022/05/07 05:35:14;;;;;;;2.42;0.80;;;;;;;11.20;100.00;100021.91;5008796;28;20061;-76
2022/05/07 05:37:43;;;;;;;1.48;0.55;;;;;;;11.16;100.00;100020.13;5009114;28;20062;-75
2022/05/07 05:40:12;;;;;;;3.83;0.40;;;;;;;11.14;100.00;100019.22;5008130;28;20550;-75
2022/05/07 05:42:40;;;;;;;3.03;0.50;;;;;;;11.14;100.00;100022.69;5008450;28;20101;-75
2022/05/07 05:45:12;;;;;;;3.95;0.88;;;;;;;11.13;100.00;100022.66;5008886;28;20052;-74
2022/05/07 05:47:40;;;;;;;5.65;0.70;;;;;;;11.13;100.00;100020.06;5008722;28;20049;-75
2022/05/07 05:50:09;;;;;;;3.72;0.90;;;;;;;11.13;100.00;100014.88;5008365;28;20050;-75
2022/05/07 05:52:37;;;;;;;1.67;0.47;;;;;;;11.15;100.00;100024.41;5008314;28;20045;-74
2022/05/07 05:55:06;;;;;;;0.93;0.40;;;;;;;11.17;100.00;100021.84;5008748;28;20068;-74
2022/05/07 05:57:35;;;;;;;1.33;0.35;;;;;;;11.22;100.00;100022.78;5007809;28;20065;-74
2022/05/07 06:00:03;;;;;;;0.40;0.40;;;;;;;11.24;100.00;100019.38;5008168;28;20053;-74
2022/05/07 06:02:33;;;;;;;1.70;0.35;;;;;;;11.28;100.00;100021.16;5007983;28;20235;-73
2022/05/07 06:05:01;;;;;;;1.77;0.47;;;;;;;11.31;100.00;100013.47;5008297;28;20046;-74
2022/05/07 06:07:29;;;;;;;2.78;0.40;;;;;;;11.35;100.00;100018.69;5007557;28;20053;-74
2022/05/07 06:09:58;;;;;;;3.15;0.63;;;;;;;11.37;100.00;100019.56;5008502;28;20048;-74
2022/05/07 06:12:26;;;;;;;2.15;0.68;;;;;;;11.38;100.00;100016.97;5012347;28;20046;-74
2022/05/07 06:14:55;;;;;;;1.83;0.40;;;;;;;11.40;100.00;100015.28;5030337;28;20483;-75
2022/05/07 06:17:25;;;;;;;3.40;0.50;;;;;;;11.42;100.00;100015.31;5031886;28;20049;-73
2022/05/07 06:19:55;;;;;;;4.22;0.57;;;;;;;11.39;100.00;100007.53;5031389;28;20060;-73
2022/05/07 06:22:23;;;;;;;1.02;0.63;;;;;;;11.39;100.00;100008.38;5032120;28;20060;-73
2022/05/07 06:27:37;;;;;;;1.60;0.40;;;;;;;11.37;100.00;100004.91;5032374;28;20061;-73
2022/05/07 06:30:07;;;;;;;2.60;0.40;;;;;;;11.34;100.00;100004.88;5032169;28;20048;-73
2022/05/07 06:32:36;;;;;;;1.42;0.38;;;;;;;11.31;100.00;100004.78;5031403;28;20060;-73
2022/05/07 06:35:07;;;;;;;2.17;0.50;;;;;;;11.32;100.00;100006.56;5031289;28;20068;-72
2022/05/07 06:37:36;;;;;;;2.03;0.50;;;;;;;11.31;100.00;100004.78;5031329;28;20078;-73
2022/05/07 06:40:06;;;;;;;2.25;0.40;;;;;;;11.31;100.00;100007.38;5031228;28;20045;-73
2022/05/07 06:42:35;;;;;;;4.28;0.82;;;;;;;11.30;100.00;100005.66;5023427;28;20060;-73
2022/05/07 06:45:04;;;;;;;0.52;0.20;;;;;;;11.28;100.00;100004.75;5030726;28;20108;-73
2022/05/07 06:47:39;;;;;;;0.90;0.55;;;;;;;11.27;100.00;100003.00;5030617;28;20053;-73
2022/05/07 06:50:09;;;;;;;0.70;0.22;;;;;;;11.22;100.00;100007.25;5030768;28;20042;-74
2022/05/07 06:52:45;;;;;;;1.38;0.30;;;;;;;11.19;100.00;100005.50;5030860;28;20041;-73
2022/05/07 06:55:16;;;;;;;3.78;0.70;;;;;;;11.17;100.00;100016.69;5031300;28;20061;-73
2022/05/07 06:57:46;;;;;;;2.05;0.50;;;;;;;11.12;100.00;100019.19;5030407;28;20049;-73
2022/05/07 07:00:15;;;;;;;2.17;0.82;;;;;;;11.09;100.00;100001.91;5030973;28;20046;-72
2022/05/07 07:02:44;;;;;;;1.52;0.40;;;;;;;11.01;100.00;99990.53;5030584;28;20561;-74
2022/05/07 07:05:14;;;;;;;5.10;0.80;;;;;;;11.05;100.00;100001.84;5014931;28;20060;-73
2022/05/07 07:07:42;;;;;;;2.75;0.60;;;;;;;11.03;100.00;100009.56;5010612;28;20045;-73
2022/05/07 07:10:11;;;;;;;1.23;0.55;;;;;;;11.03;100.00;100014.75;5016331;28;20030;-72
2022/05/07 07:12:40;;;;;;;2.03;0.55;;;;;;;11.02;100.00;100022.50;5013115;28;20093;-72
2022/05/07 07:15:10;;;;;;;1.60;0.60;;;;;;;11.00;100.00;100019.03;5028128;28;20053;-72
2022/05/07 07:17:38;;;;;;;4.00;0.50;;;;;;;10.98;100.00;100021.56;5030345;28;20049;-72
2022/05/07 07:20:07;;;;;;;1.98;0.43;;;;;;;10.98;100.00;100033.66;5031592;28;20057;-73
2022/05/07 07:22:37;;;;;;;1.40;0.50;;;;;;;10.98;100.00;100036.25;5033078;28;20140;-72
2022/05/07 07:25:06;;;;;;;1.67;0.50;;;;;;;10.97;100.00;100039.66;5031004;28;20045;-73
2022/05/07 07:27:35;;;;;;;3.38;0.55;;;;;;;10.98;100.00;100042.28;5030215;28;20120;-73
2022/05/07 07:30:03;;;;;;;4.68;0.70;;;;;;;10.98;100.00;100046.59;5030606;28;20046;-71
2022/05/07 07:32:31;;;;;;;2.67;1.10;;;;;;;10.99;100.00;100056.94;5029982;28;20064;-75
2022/05/07 07:34:59;;;;;;;1.83;0.70;;;;;;;11.02;100.00;100049.25;5029902;28;20140;-74
2022/05/07 07:37:28;;;;;;;5.05;0.63;;;;;;;11.05;100.00;100059.66;5030303;28;20060;-74
2022/05/07 07:40:00;;;;;;;3.38;0.63;;;;;;;11.09;100.00;100060.59;5030331;28;20099;-74
2022/05/07 07:42:28;;;;;;;3.60;0.52;;;;;;;11.09;100.00;100069.22;5029645;28;20092;-74
2022/05/07 07:50:23;;;;;;;3.55;0.60;;;;;;;11.12;100.00;100068.38;5029901;28;20827;-73
2022/05/07 07:52:54;;;;;;;0.52;0.32;;;;;;;11.09;100.00;100076.97;5029593;28;20053;-74
2022/05/07 07:55:25;;;;;;;1.92;0.50;;;;;;;11.07;100.00;100076.09;5029608;28;20049;-73
2022/05/07 07:57:56;;;;;;;1.08;0.47;;;;;;;11.03;100.00;100082.06;5029581;28;20108;-71
2022/05/07 08:00:26;;;;;;;2.05;0.50;;;;;;;11.01;100.00;100088.91;5029432;28;20522;-72
2022/05/07 08:02:55;;;;;;;2.30;0.40;;;;;;;10.98;100.00;100088.88;5029531;28;20056;-74
2022/05/07 08:05:24;;;;;;;0.65;0.55;;;;;;;10.96;100.00;100094.88;5028776;28;20462;-73
2022/05/07 08:13:25;;;;;;;2.08;0.47;;;;;;;10.98;100.00;100103.53;5014123;28;20590;-73
2022/05/07 08:15:53;;;;;;;3.55;0.60;;;;;;;10.96;100.00;100105.22;5029175;28;20083;-73
2022/05/07 08:18:22;;;;;;;2.22;0.47;;;;;;;10.95;100.00;100112.13;5031598;28;20107;-73
2022/05/07 08:20:50;;;;;;;1.05;0.38;;;;;;;10.94;100.00;100118.13;5030380;28;20136;-74
2022/05/07 08:23:19;;;;;;;2.28;0.40;;;;;;;10.92;100.00;100113.78;5029111;28;20046;-74
2022/05/07 08:25:50;;;;;;;1.85;0.82;;;;;;;10.90;100.00;100116.31;5029251;28;20057;-72
2022/05/07 08:28:19;;;;;;;1.45;0.30;;;;;;;10.86;100.00;100123.19;5029198;28;20095;-74
2022/05/07 08:30:49;;;;;;;1.30;0.45;;;;;;;10.85;100.00;100123.16;5029071;28;20142;-72
2022/05/07 08:33:18;;;;;;;1.88;0.47;;;;;;;10.84;100.00;100124.88;5029010;28;20491;-72
2022/05/07 08:35:47;;;;;;;0.77;0.28;;;;;;;10.85;100.00;100129.19;5028032;28;20554;-72
2022/05/07 08:38:16;;;;;;;2.33;0.50;;;;;;;10.85;100.00;100123.16;5028997;28;20060;-69
2022/05/07 08:40:44;;;;;;;0.60;0.20;;;;;;;10.82;100.00;100125.69;5028376;28;20107;-72
2022/05/07 08:43:16;;;;;;;0.52;0.13;;;;;;;10.83;100.00;100127.41;5028528;28;20071;-72
2022/05/07 08:45:46;;;;;;;0.93;0.30;;;;;;;10.83;100.00;100130.00;5029048;28;20517;-73
2022/05/07 08:48:14;;;;;;;0.60;0.32;;;;;;;10.83;100.00;100135.19;5022655;28;20129;-72
2022/05/07 08:50:44;;;;;;;0.98;0.40;;;;;;;10.85;100.00;100138.66;5008835;28;20095;-73
2022/05/07 08:53:12;;;;;;;2.38;0.50;;;;;;;10.83;100.00;100143.81;5008491;28;20053;-72
2022/05/07 08:55:41;;;;;;;1.38;0.38;;;;;;;10.82;100.00;100147.25;5009189;28;20577;-73
2022/05/07 08:58:10;;;;;;;1.73;0.55;;;;;;;10.82;100.00;100144.66;5008313;28;20136;-73
2022/05/07 09:00:43;;;;;;;0.47;0.32;;;;;;;10.79;100.00;100144.63;5008677;28;20049;-72
2022/05/07 09:03:16;;;;;;;1.63;0.57;;;;;;;10.82;100.00;100148.97;5008857;28;20396;-72
2022/05/07 09:05:45;;;;;;;1.90;0.40;;;;;;;10.81;100.00;100149.81;5009195;28;20646;-71
2022/05/07 09:08:14;;;;;;;1.38;0.30;;;;;;;10.80;100.00;100158.44;5008636;28;20084;-72
2022/05/07 09:10:43;;;;;;;1.58;0.38;;;;;;;10.80;100.00;100150.66;5008664;28;20105;-72
2022/05/07 09:13:14;;;;;;;2.45;0.45;;;;;;;10.81;100.00;100154.97;5010880;28;20053;-73
2022/05/07 09:15:55;;;;;;;0.75;0.30;;;;;;;10.82;100.00;100149.84;5031782;28;20056;-73
2022/05/07 09:18:25;;;;;;;6.35;0.80;;;;;;;10.81;100.00;100153.28;5029197;28;20053;-72
2022/05/07 09:21:16;;;;;;;2.60;0.80;;;;;;;10.81;100.00;100157.56;5028824;28;20053;-73
2022/05/07 09:23:48;;;;;;;0.88;0.30;;;;;;;10.79;100.00;100154.06;5028237;28;20103;-73
2022/05/07 09:26:29;;;;;;;0.50;0.32;;;;;;;10.76;100.00;100164.38;5028220;28;20057;-73
2022/05/07 09:28:58;;;;;;;3.20;0.38;;;;;;;10.75;100.00;100162.66;5028623;28;20045;-73
2022/05/07 09:31:29;;;;;;;1.13;0.30;;;;;;;10.73;100.00;100164.34;5028206;28;20045;-74
2022/05/07 09:35:47;;;;;;;3.28;0.50;;;;;;;10.66;100.00;100164.19;5027981;28;20166;-72
2022/05/07 09:36:46;;;;;;;2.15;0.40;;;;;;;10.63;100.00;100166.75;5028369;28;20049;-72
2022/05/07 09:39:15;;;;;;;1.25;0.70;;;;;;;10.64;100.00;100167.59;5028732;28;20422;-72
2022/05/07 09:41:44;;;;;;;0.95;0.10;;;;;;;10.63;100.00;100163.28;5027895;28;20483;-73
2022/05/07 09:44:13;;;;;;;0.52;0.25;;;;;;;10.60;100.00;100178.72;5012312;28;20132;-72
2022/05/07 09:46:43;;;;;;;2.63;0.40;;;;;;;10.58;100.00;100178.72;5009713;28;20060;-72
2022/05/07 09:49:12;;;;;;;0.40;0.25;;;;;;;10.55;100.00;100180.34;5012665;28;20041;-73
2022/05/07 09:51:42;;;;;;;2.08;0.32;;;;;;;10.54;100.00;100178.63;5012478;28;20085;-73
2022/05/07 09:59:41;;;;;;;0.40;0.10;;;;;;;10.51;100.00;100179.41;5012861;28;20053;-72
2022/05/07 10:02:25;;;;;;;0.65;0.15;;;;;;;10.51;100.00;100176.81;5011570;28;20046;-71
2022/05/07 10:05:18;;;;;;;0.52;0.35;;;;;;;10.55;100.00;100185.53;5011770;28;20139;-72
2022/05/07 10:08:02;;;;;;;0.82;0.20;;;;;;;10.56;100.00;100188.16;4995557;28;20077;-72
2022/05/07 10:10:35;;;;;;;1.08;0.43;;;;;;;10.57;100.00;100184.72;5018641;28;20578;-72
2022/05/07 10:13:06;;;;;;;0.38;0.20;;;;;;;10.61;100.00;100196.00;5016875;28;20496;-72
2022/05/07 10:15:34;;;;;;;2.65;0.20;;;;;;;10.63;100.00;100195.19;5025347;28;20598;-72
2022/05/07 10:18:07;;;;;;;1.17;0.43;;;;;;;10.65;100.00;100209.03;5031454;28;20128;-72
2022/05/07 10:20:43;;;;;;;2.40;0.30;;;;;;;10.67;100.00;100207.38;5031827;28;20065;-73
2022/05/07 10:23:12;;;;;;;1.08;0.20;;;;;;;10.69;100.00;100215.13;5031077;28;20403;-73
2022/05/07 10:25:43;;;;;;;1.88;0.43;;;;;;;10.68;100.00;100219.44;5031753;28;20053;-74
2022/05/07 10:28:13;;;;;;;0.75;0.25;;;;;;;10.64;100.00;100222.81;5028230;28;20045;-73
2022/05/07 10:30:49;;;;;;;0.32;0.20;;;;;;;10.65;100.00;100234.91;5006567;28;20064;-73
2022/05/07 10:33:20;;;;;;;0.93;0.10;;;;;;;10.58;100.00;100233.03;5010954;28;20132;-73
2022/05/07 10:35:51;;;;;;;2.22;0.50;;;;;;;10.57;100.00;100231.28;5011138;28;20805;-73
2022/05/07 10:38:29;;;;;;;0.40;0.10;;;;;;;10.56;100.00;100223.47;5011020;28;20054;-73
2022/05/07 10:40:59;;;;;;;0.20;0.10;;;;;;;10.54;100.00;100230.38;5010686;28;20049;-73
2022/05/07 10:43:32;;;;;;;1.02;0.10;;;;;;;10.50;100.00;100244.06;5010895;28;20153;-74
2022/05/07 10:46:05;;;;;;;2.40;0.47;;;;;;;10.48;100.00;100246.59;5010995;28;20053;-73
2022/05/07 10:48:46;;;;;;;1.38;0.40;;;;;;;10.48;100.00;100251.78;5010733;28;20053;-73
2022/05/07 10:51:21;;;;;;;2.35;0.30;;;;;;;10.47;100.00;100250.06;5010897;28;20451;-73
2022/05/07 10:53:51;;;;;;;0.43;0.10;;;;;;;10.48;100.00;100259.53;5011176;28;20104;-72
2022/05/07 10:56:20;;;;;;;2.05;0.22;;;;;;;10.47;100.00;100262.97;5010417;28;20054;-72
2022/05/07 10:58:49;;;;;;;5.53;0.20;;;;;;;10.46;100.00;100272.44;5010536;28;20112;-72
2022/05/07 11:01:18;;;;;;;0.38;0.20;;;;;;;10.45;100.00;100278.47;5011185;28;20479;-73
2022/05/07 11:03:49;;;;;;;0.63;0.17;;;;;;;10.35;100.00;100273.03;5010428;28;20483;-72
2022/05/07 11:06:19;;;;;;;2.35;0.30;;;;;;;10.34;100.00;100273.88;5011298;28;20053;-71
2022/05/07 11:08:49;;;;;;;3.17;0.43;;;;;;;10.34;100.00;100281.66;5011170;28;20523;-72
2022/05/07 11:11:18;;;;;;;3.20;0.40;;;;;;;10.35;100.00;100280.78;5021268;28;20038;-73
2022/05/07 11:13:48;;;;;;;0.65;0.20;;;;;;;10.38;100.00;100286.91;5012334;28;20120;-71
2022/05/07 11:16:18;;;;;;;0.60;0.35;;;;;;;10.41;100.00;100288.69;5011355;28;20045;-71
2022/05/07 11:18:51;;;;;;;0.50;0.30;;;;;;;10.41;100.00;100286.13;5004352;28;20046;-72
2022/05/07 11:21:19;;;;;;;0.22;0.22;;;;;;;10.43;100.00;100289.63;5010052;28;20500;-73
2022/05/07 11:23:54;;;;;;;0.30;0.10;;;;;;;10.42;100.00;100299.09;5010531;28;20088;-72
2022/05/07 11:26:23;;;;;;;0.52;0.10;;;;;;;10.44;100.00;100312.03;5010653;28;20562;-72
2022/05/07 11:28:53;;;;;;;0.47;0.20;;;;;;;10.47;100.00;100317.31;5010698;28;20077;-72
2022/05/07 11:31:28;;;;;;;0.28;0.20;;;;;;;10.51;100.00;100318.22;5010583;28;20046;-72
2022/05/07 11:34:09;;;;;;;1.10;0.20;;;;;;;10.52;100.00;100331.22;5010309;28;20064;-72
2022/05/07 11:36:39;;;;;;;0.30;0.30;;;;;;;10.55;100.00;100338.16;5007906;28;20050;-72
2022/05/07 11:39:08;;;;;;;1.77;0.25;;;;;;;10.59;100.00;100338.25;5004386;28;20136;-72
2022/05/07 11:41:37;;;;;;;1.75;0.30;;;;;;;10.61;100.00;100346.94;5009245;28;20049;-72
2022/05/07 11:46:53;;;;;;;0.20;0.10;;;;;;;10.55;100.00;100338.16;5009824;28;20053;-72
2022/05/07 11:49:33;;;;;;;0.43;0.10;;;;;;;10.64;100.00;100362.53;5010343;28;20050;-73
2022/05/07 11:52:10;;;;;;;3.03;0.20;;;;;;;10.67;100.00;100370.38;5008535;28;20140;-72
2022/05/07 11:54:49;;;;;;;0.90;0.10;;;;;;;10.63;100.00;100371.13;5009163;28;20046;-72
2022/05/07 11:57:28;;;;;;;2.25;0.25;;;;;;;10.71;100.00;100381.66;5009636;28;20694;-72
2022/05/07 11:59:57;;;;;;;0.55;0.20;;;;;;;10.74;100.00;100393.78;5009800;28;20066;-73